createdAt,value
2023-01-10T00:00:26.782Z,97828.06
2023-01-10T00:05:28.518Z,97831.92
2023-01-10T00:10:30.893Z,97837.48
2023-01-10T00:15:33.826Z,97842.38
2023-01-10T00:20:35.913Z,97846.15
2023-01-10T00:25:37.829Z,97850.27
2023-01-10T00:30:40.710Z,97859.34
2023-01-10T00:35:42.709Z,97861.43
2023-01-10T00:40:46.058Z,97867.12
2023-01-10T00:45:48.244Z,97874.52
2023-01-10T00:50:50.050Z,97881.69
2023-01-10T00:55:51.709Z,97890.63
2023-01-10T01:00:53.432Z,97894.72
2023-01-10T01:05:55.161Z,97899.88
2023-01-10T01:10:56.927Z,97901.95
2023-01-10T01:15:59.796Z,97905.74
2023-01-10T01:21:03.624Z,97904.06
2023-01-10T01:26:06.546Z,97904.33
2023-01-10T01:31:09.592Z,97907.60
2023-01-10T01:36:12.663Z,97912.20
2023-01-10T01:41:32.912Z,97917.05
2023-01-10T01:46:39.305Z,97921.89
2023-01-10T01:51:41.317Z,97918.83
2023-01-10T01:56:53.596Z,97920.63
2023-01-10T02:02:00.586Z,97917.89
2023-01-10T02:07:03.053Z,97916.92
2023-01-10T02:12:05.484Z,97922.12
2023-01-10T02:17:10.221Z,97930.24
2023-01-10T02:22:49.689Z,97934.28
2023-01-10T02:28:16.981Z,97936.28
2023-01-10T02:33:53.973Z,97946.10
2023-01-10T02:39:04.659Z,97946.66
2023-01-10T02:44:19.876Z,97953.99
2023-01-10T02:49:21.617Z,97965.79
2023-01-10T02:54:27.707Z,97972.70
2023-01-10T02:59:35.607Z,97980.42
2023-01-10T03:04:45.761Z,97983.70
2023-01-10T03:10:10.723Z,97988.23
2023-01-10T03:15:17.854Z,97996.61
2023-01-10T03:20:23.393Z,98000.95
2023-01-10T03:25:34.220Z,98019.30
2023-01-10T03:30:42.394Z,98029.46
2023-01-10T03:36:01.141Z,98040.23
2023-01-10T03:41:35.362Z,98046.34
2023-01-10T03:46:52.533Z,98052.94
2023-01-10T03:51:56.859Z,98064.91
2023-01-10T03:56:58.590Z,98075.73
2023-01-10T04:02:00.417Z,98091.80
2023-01-10T04:07:02.437Z,98093.23
2023-01-10T04:12:04.282Z,98101.70
2023-01-10T04:17:06.209Z,98110.63
2023-01-10T04:22:09.724Z,98112.70
2023-01-10T04:27:11.447Z,98116.88
2023-01-10T04:32:13.406Z,98121.16
2023-01-10T04:37:15.082Z,98128.23
2023-01-10T04:42:17.257Z,98132.14
2023-01-10T04:47:19.125Z,98134.86
2023-01-10T04:52:21.124Z,98146.69
2023-01-10T04:57:22.812Z,98155.10
2023-01-10T05:02:24.567Z,98164.70
2023-01-10T05:07:26.305Z,98171.98
2023-01-10T05:12:27.983Z,98184.59
2023-01-10T05:17:29.723Z,98189.64
2023-01-10T05:22:31.787Z,98192.21
2023-01-10T05:27:33.551Z,98203.63
2023-01-10T05:32:35.231Z,98212.61
2023-01-10T05:37:38.131Z,98220.16
2023-01-10T05:42:40.127Z,98228.52
2023-01-10T05:47:42.780Z,98235.96
2023-01-10T05:52:44.545Z,98241.00
2023-01-10T05:57:46.283Z,98248.14
2023-01-10T06:02:48.082Z,98253.58
2023-01-10T06:07:50.682Z,98259.09
2023-01-10T06:12:52.568Z,98270.80
2023-01-10T06:17:54.639Z,98280.73
2023-01-10T06:22:56.801Z,98288.55
2023-01-10T06:27:58.481Z,98298.04
2023-01-10T06:33:02.701Z,98306.84
2023-01-10T06:38:05.006Z,98316.34
2023-01-10T06:43:06.819Z,98319.75
2023-01-10T06:48:08.692Z,98336.22
2023-01-10T06:53:10.421Z,98337.02
2023-01-10T06:58:12.096Z,98349.89
2023-01-10T07:03:13.813Z,98358.11
2023-01-10T07:08:16.188Z,98362.50
2023-01-10T07:13:17.910Z,98363.75
2023-01-10T07:18:19.774Z,98372.35
2023-01-10T07:23:21.632Z,98379.95
2023-01-10T07:28:23.730Z,98379.24
2023-01-10T07:33:25.416Z,98379.63
2023-01-10T07:38:27.200Z,98391.34
2023-01-10T07:43:29.451Z,98404.22
2023-01-10T07:48:31.344Z,98403.58
2023-01-10T07:53:33.378Z,98401.27
2023-01-10T07:58:35.778Z,98402.52
2023-01-10T08:03:37.803Z,98415.72
2023-01-10T08:08:39.621Z,98418.14
2023-01-10T08:13:41.350Z,98418.96
2023-01-10T08:18:43.439Z,98429.08
2023-01-10T08:23:45.209Z,98443.86
2023-01-10T08:28:47.045Z,98450.48
2023-01-10T08:33:48.863Z,98456.83
2023-01-10T08:38:51.203Z,98458.00
2023-01-10T08:43:53.075Z,98453.45
2023-01-10T08:48:54.790Z,98463.41
2023-01-10T08:53:56.514Z,98474.06
2023-01-10T08:58:58.243Z,98484.48
2023-01-10T09:04:00.072Z,98506.15
2023-01-10T09:09:01.839Z,98516.71
2023-01-10T09:14:03.559Z,98528.51
2023-01-10T09:19:05.625Z,98535.11
2023-01-10T09:24:14.858Z,98547.42
2023-01-10T09:29:16.692Z,98551.58
2023-01-10T09:34:18.461Z,98555.55
2023-01-10T09:39:21.637Z,98570.11
2023-01-10T09:44:48.143Z,98570.38
2023-01-10T09:49:58.038Z,98572.58
2023-01-10T09:55:25.382Z,98578.38
2023-01-10T10:00:51.680Z,98584.67
2023-01-10T10:06:00.817Z,98587.19
2023-01-10T10:11:27.250Z,98596.29
2023-01-10T10:16:44.251Z,98596.83
2023-01-10T10:22:04.466Z,98600.05
2023-01-10T10:27:23.887Z,98601.52
2023-01-10T10:32:38.110Z,98608.63
2023-01-10T10:37:45.885Z,98615.05
2023-01-10T10:42:51.009Z,98622.52
2023-01-10T10:48:13.282Z,98624.89
2023-01-10T10:53:14.979Z,98622.27
2023-01-10T10:58:18.175Z,98626.16
2023-01-10T11:03:42.816Z,98625.21
2023-01-10T11:08:48.571Z,98635.02
2023-01-10T11:13:55.823Z,98641.66
2023-01-10T11:19:24.133Z,98651.28
2023-01-10T11:24:38.063Z,98653.33
2023-01-10T11:29:50.748Z,98662.27
2023-01-10T11:35:00.926Z,98672.10
2023-01-10T11:40:26.685Z,98675.52
2023-01-10T11:45:32.090Z,98679.31
2023-01-10T11:50:43.235Z,98682.29
2023-01-10T11:55:48.644Z,98687.83
2023-01-10T12:00:50.450Z,98697.67
2023-01-10T12:05:57.013Z,98702.52
2023-01-10T12:11:15.333Z,98708.48
2023-01-10T12:16:22.542Z,98714.64
2023-01-10T12:21:45.565Z,98721.58
2023-01-10T12:26:51.110Z,98730.31
2023-01-10T12:31:54.935Z,98735.10
2023-01-10T12:37:14.745Z,98733.23
2023-01-10T12:42:43.592Z,98735.34
2023-01-10T12:48:06.595Z,98742.58
2023-01-10T12:53:17.587Z,98747.55
2023-01-10T12:58:24.044Z,98756.86
2023-01-10T13:03:33.226Z,98760.13
2023-01-10T13:08:37.855Z,98768.86
2023-01-10T13:13:48.575Z,98771.23
2023-01-10T13:19:27.528Z,98776.91
2023-01-10T13:24:29.280Z,98784.14
2023-01-10T13:29:41.845Z,98784.80
2023-01-10T13:34:43.819Z,98791.44
2023-01-10T13:39:52.625Z,98797.90
2023-01-10T13:45:03.618Z,98802.59
2023-01-10T13:50:33.656Z,98806.90
2023-01-10T13:55:53.394Z,98811.17
2023-01-10T14:01:19.912Z,98822.29
2023-01-10T14:06:37.978Z,98826.17
2023-01-10T14:11:42.709Z,98835.08
2023-01-10T14:16:48.907Z,98839.95
2023-01-10T14:21:56.199Z,98846.37
2023-01-10T14:27:01.274Z,98852.45
2023-01-10T14:32:12.227Z,98860.16
2023-01-10T14:37:37.351Z,98865.63
2023-01-10T14:42:39.311Z,98865.64
2023-01-10T14:47:41.064Z,98878.33
2023-01-10T14:52:43.442Z,98877.35
2023-01-10T14:57:56.412Z,98892.73
2023-01-10T15:03:01.825Z,98897.21
2023-01-10T15:08:23.482Z,98904.34
2023-01-10T15:13:28.406Z,98916.24
2023-01-10T15:18:43.772Z,98918.23
2023-01-10T15:23:47.070Z,98921.84
2023-01-10T15:29:13.245Z,98925.41
2023-01-10T15:34:26.542Z,98928.23
2023-01-10T15:39:37.475Z,98934.91
2023-01-10T15:44:52.455Z,98941.06
2023-01-10T15:49:54.504Z,98936.84
2023-01-10T15:54:57.124Z,98944.88
2023-01-10T16:00:00.333Z,98944.27
2023-01-10T16:05:08.887Z,98951.33
2023-01-10T16:10:21.633Z,98960.98
2023-01-10T16:15:26.330Z,98960.77
2023-01-10T16:20:41.152Z,98966.02
2023-01-10T16:25:47.164Z,98965.67
2023-01-10T16:30:49.129Z,98974.16
2023-01-10T16:35:53.172Z,98982.96
2023-01-10T16:41:00.517Z,98998.39
2023-01-10T16:46:03.671Z,99006.34
2023-01-10T16:51:16.930Z,99018.27
2023-01-10T16:56:24.765Z,99018.05
2023-01-10T17:01:30.972Z,99017.63
2023-01-10T17:06:32.888Z,99026.60
2023-01-10T17:11:40.593Z,99032.95
2023-01-10T17:16:42.402Z,99043.83
2023-01-10T17:21:44.137Z,99049.08
2023-01-10T17:26:46.047Z,99055.10
2023-01-10T17:31:47.728Z,99065.83
2023-01-10T17:36:49.458Z,99074.03
2023-01-10T17:41:51.155Z,99081.73
2023-01-10T17:46:55.163Z,99087.70
2023-01-10T17:51:58.900Z,99093.48
2023-01-10T17:57:01.655Z,99096.53
2023-01-10T18:02:03.680Z,99097.70
2023-01-10T18:07:05.635Z,99101.48
2023-01-10T18:12:07.579Z,99108.58
2023-01-10T18:17:11.511Z,99114.08
2023-01-10T18:22:32.140Z,99119.80
2023-01-10T18:27:33.959Z,99124.38
2023-01-10T18:32:35.857Z,99128.08
2023-01-10T18:37:39.327Z,99126.66
2023-01-10T18:42:41.110Z,99124.40
2023-01-10T18:47:42.834Z,99113.08
2023-01-10T18:52:44.523Z,99121.70
2023-01-10T18:57:46.793Z,99121.91
2023-01-10T19:02:48.565Z,99122.42
2023-01-10T19:07:50.332Z,99133.42
2023-01-10T19:12:52.313Z,99141.84
2023-01-10T19:17:57.167Z,99149.52
2023-01-10T19:22:59.013Z,99147.73
2023-01-10T19:28:02.586Z,99144.89
2023-01-10T19:33:05.758Z,99148.16
2023-01-10T19:38:07.599Z,99146.52
2023-01-10T19:43:09.387Z,99151.30
2023-01-10T19:48:11.103Z,99151.56
2023-01-10T19:53:14.619Z,99156.68
2023-01-10T19:58:16.358Z,99156.20
2023-01-10T20:03:18.105Z,99154.48
2023-01-10T20:08:22.759Z,99157.74
2023-01-10T20:13:25.359Z,99168.27
2023-01-10T20:18:28.146Z,99167.05
2023-01-10T20:23:31.385Z,99165.91
2023-01-10T20:28:34.444Z,99165.83
2023-01-10T20:33:36.284Z,99165.67
2023-01-10T20:38:38.690Z,99164.56
2023-01-10T20:43:40.831Z,99167.50
2023-01-10T20:48:43.405Z,99167.27
2023-01-10T20:53:45.198Z,99167.24
2023-01-10T20:58:47.957Z,99170.61
2023-01-10T21:03:49.938Z,99173.70
2023-01-10T21:08:51.755Z,99176.00
2023-01-10T21:13:53.449Z,99180.86
2023-01-10T21:18:55.195Z,99181.23
2023-01-10T21:23:56.929Z,99188.23
2023-01-10T21:28:58.655Z,99194.27
2023-01-10T21:34:00.379Z,99200.48
2023-01-10T21:39:02.093Z,99205.13
2023-01-10T21:44:05.604Z,99210.26
2023-01-10T21:49:07.333Z,99209.86
2023-01-10T21:54:09.077Z,99212.95
2023-01-10T21:59:10.837Z,99212.86
2023-01-10T22:04:16.267Z,99208.20
2023-01-10T22:09:19.374Z,99206.80
2023-01-10T22:14:22.622Z,99208.41
2023-01-10T22:19:24.447Z,99209.89
2023-01-10T22:24:26.452Z,99208.02
2023-01-10T22:29:28.359Z,99205.84
2023-01-10T22:34:30.176Z,99203.92
2023-01-10T22:39:32.136Z,99203.51
2023-01-10T22:44:34.020Z,99200.65
2023-01-10T22:49:35.768Z,99197.36
2023-01-10T22:54:37.487Z,99202.13
2023-01-10T22:59:39.169Z,99208.61
2023-01-10T23:04:40.855Z,99209.58
2023-01-10T23:09:42.535Z,99210.95
2023-01-10T23:14:44.995Z,99214.25
2023-01-10T23:19:46.776Z,99215.67
2023-01-10T23:24:48.543Z,99210.95
2023-01-10T23:29:50.215Z,99204.31
2023-01-10T23:34:52.064Z,99207.84
2023-01-10T23:39:53.709Z,99203.73
2023-01-10T23:44:55.281Z,99198.20
2023-01-10T23:49:56.953Z,99197.58
2023-01-10T23:54:58.563Z,99198.88
